Siirt Airport Siirt TR
ICAO: LTCL
IATA: SXZ
Category: Medium
Scheduled Services: No

Elevation: 2001 ft
TransAlt. 12000 ft.

Airport Communications:
TWR:132.05

LTCL Zoom In..

If you have problems with the map follow the link
https://www.worldairports.se/pages/airport.php?
ICAO=LTCL

Runways:

(A) RW 06 length 6562 ft width 98 ft
---- / hdg 63

(B) RW 24 length 6562 ft width 98 ft
---- / hdg 243

Location; LTCL
Day. 17 / Time. 12.50 Zulu
* QNH: 1006
* Temperature: 37° c. 98.6°f.
* Wind from: 200° Speed 16 kn.
Dewpoint: 06° c.
Visibility: 10 km or more.
Clouds: Scattered 4000 ft.

LTCL 171250Z 20016KT 9999 SCT040 37/06 Q1006


Wind From 200°
Speed 16 kn.

 
 
jpsmedia.com for Web Design worldairports.se 2019   terms of use